Andrews, TX

5:43 AM CST on November 13, 2019 (GMT -0600)
Andrews

Weather History for KE11 - September, 2019

Change the Weather History Date:

Sunday, September 22, 2019

  Actual Average (WUND) Record (WUND)
Temperature  
Mean Temperature 76 °F -  
Max Temperature 85 °F - - (-1)
Min Temperature 66 °F - - (-1)
Cooling Degree Days 10    
Growing Degree Days 26 (Base 50)    
Moisture  
Dew Point 64 °F    
Average Humidity 76    
Maximum Humidity 100    
Minimum Humidity 34    
Precipitation  
Precipitation 0.00 in - - ()
Sea Level Pressure  
Sea Level Pressure 30.06 in    
Wind  
Wind Speed 8 mph ()    
Max Wind Speed 16 mph    
Max Gust Speed 25 mph    
Visibility 9.9 miles    
Events Rain , Thunderstorm    
Averages and records for this station are not official NWS values.
T = Trace of Precipitation, MM = Missing Value Source: Averaged Metar Reports

Daily Weather History Graph

Daily Weather History Graph

Search for Another Location

Airport or City:

Astronomy

Sep. 22, 2019 Rise Set
Actual Time 7:38 AM CDT 7:47 PM CDT
Civil Twilight 7:13 AM CDT 8:11 PM CDT
Nautical Twilight 6:45 AM CDT 8:39 PM CDT
Astronomical Twilight 6:16 AM CDT 9:08 PM CDT
Moon 12:49 AM CDT (9/22) 3:23 PM CDT (9/22)
Length of Visible Light 12h 57m
Length of Day
12h 08m
Last Quarter, 44% of the Moon is Illuminated
Sep 22
Last Quarter
Sep 28
New
Oct 5
First Quarter
Oct 13
Full
Oct 21
Last Quarter

Hourly Weather History & Observations

Time (CDT) Temp. Heat Index Dew Point Humidity Pressure Visibility Wind Dir Wind Speed Gust Speed Precip Events Conditions
12:15 AM 68.9 °F - 68.9 °F 100% 30.03 in 5.0 mi South 9.2 mph - N/A   Scattered Clouds
12:35 AM 68.9 °F - 68.9 °F 100% 30.03 in 7.0 mi South 11.5 mph 21.9 mph N/A   Mostly Cloudy
12:55 AM 68.4 °F - 68.4 °F 100% 30.04 in 10.0 mi South 12.7 mph - N/A   Scattered Clouds
1:15 AM 68.0 °F - 68.0 °F 100% 30.04 in 10.0 mi SSW 13.8 mph - N/A   Clear
1:35 AM 67.3 °F - 67.3 °F 100% 30.03 in 10.0 mi SSW 16.1 mph 25.3 mph N/A   Scattered Clouds
1:55 AM 67.3 °F - 67.3 °F 100% 30.03 in 10.0 mi SSW 12.7 mph 20.7 mph N/A   Mostly Cloudy
2:15 AM 67.1 °F - 67.1 °F 100% 30.03 in 10.0 mi SSW 12.7 mph - N/A   Scattered Clouds
2:35 AM 66.9 °F - 66.9 °F 100% 30.03 in 10.0 mi SSW 12.7 mph 18.4 mph N/A   Scattered Clouds
2:55 AM 66.7 °F - 66.7 °F 100% 30.03 in 10.0 mi SSW 11.5 mph - N/A   Mostly Cloudy
3:15 AM 67.1 °F - 67.1 °F 100% 30.03 in 10.0 mi SSW 12.7 mph 16.1 mph N/A   Overcast
3:35 AM 67.1 °F - 67.1 °F 100% 30.03 in 10.0 mi SW 13.8 mph 20.7 mph N/A   Overcast
3:55 AM 67.1 °F - 67.1 °F 100% 30.03 in 10.0 mi SW 13.8 mph - N/A   Overcast
4:15 AM 67.1 °F - 67.1 °F 100% 30.02 in 10.0 mi SW 11.5 mph - N/A   Mostly Cloudy
4:35 AM 66.7 °F - 66.7 °F 100% 30.03 in 10.0 mi SW 11.5 mph 17.3 mph N/A   Mostly Cloudy
4:55 AM 66.7 °F - 66.7 °F 100% 30.03 in 10.0 mi SW 11.5 mph 16.1 mph N/A   Mostly Cloudy
5:15 AM 67.1 °F - 67.1 °F 100% 30.03 in 10.0 mi SW 9.2 mph - N/A   Overcast
5:35 AM 67.1 °F - 67.1 °F 100% 30.03 in 10.0 mi SW 9.2 mph - N/A   Overcast
5:55 AM 67.1 °F - 67.1 °F 100% 30.03 in 10.0 mi WSW 9.2 mph - N/A   Mostly Cloudy
6:15 AM 67.1 °F - 67.1 °F 100% 30.04 in 10.0 mi SW 8.1 mph - N/A   Scattered Clouds
6:35 AM 67.3 °F - 67.3 °F 100% 30.04 in 10.0 mi WSW 8.1 mph - N/A   Scattered Clouds
6:55 AM 67.5 °F - 67.5 °F 100% 30.05 in 10.0 mi SW 6.9 mph - N/A   Mostly Cloudy
7:15 AM 67.6 °F - 67.6 °F 100% 30.05 in 10.0 mi SW 5.8 mph - N/A   Mostly Cloudy
7:35 AM 68.0 °F - 68.0 °F 100% 30.06 in 10.0 mi SW 6.9 mph - N/A   Mostly Cloudy
7:55 AM 68.2 °F - 68.2 °F 100% 30.07 in 10.0 mi SW 8.1 mph - N/A   Mostly Cloudy
8:15 AM 68.4 °F - 68.4 °F 100% 30.07 in 10.0 mi SW 8.1 mph - N/A   Overcast
8:35 AM 68.9 °F - 68.9 °F 100% 30.07 in 10.0 mi SW 10.4 mph - N/A   Mostly Cloudy
8:55 AM 69.1 °F - 69.1 °F 100% 30.08 in 10.0 mi SW 6.9 mph - N/A   Mostly Cloudy
9:35 AM 69.8 °F - 69.6 °F 99% 30.08 in 10.0 mi SW 6.9 mph - N/A   Mostly Cloudy
9:55 AM 72.9 °F - 68.5 °F 86% 30.08 in 10.0 mi WSW 9.2 mph - N/A   Mostly Cloudy
10:15 AM 72.3 °F - 68.9 °F 89% 30.09 in 10.0 mi SW 9.2 mph - N/A   Overcast
10:35 AM 73.4 °F - 68.5 °F 85% 30.09 in 10.0 mi WSW 9.2 mph - N/A   Overcast
10:55 AM 74.1 °F - 68.4 °F 82% 30.10 in 10.0 mi West 6.9 mph - N/A   Mostly Cloudy
11:15 AM 74.3 °F - 68.0 °F 81% 30.10 in 10.0 mi SW 9.2 mph - N/A   Scattered Clouds
11:35 AM 74.3 °F - 68.4 °F 82% 30.10 in 10.0 mi SW 8.1 mph - N/A Rain Light Rain
11:55 AM 75.2 °F - 67.3 °F 76% 30.10 in 10.0 mi WSW 8.1 mph - N/A   Scattered Clouds
12:15 PM 77.4 °F - 65.5 °F 67% 30.10 in 10.0 mi WSW 10.4 mph - N/A   Clear
12:35 PM 79.2 °F - 64.4 °F 60% 30.09 in 10.0 mi SW 5.8 mph 9.2 mph N/A   Clear
12:55 PM 80.6 °F 82.4 °F 65.1 °F 59% 30.09 in 10.0 mi SW 6.9 mph 16.1 mph N/A   Clear
1:15 PM 80.6 °F 82.2 °F 64.2 °F 57% 30.08 in 10.0 mi West 10.4 mph - N/A   Clear
1:35 PM 82.8 °F 84.3 °F 64.4 °F 54% 30.08 in 10.0 mi WSW 8.1 mph - N/A   Clear
1:55 PM 82.0 °F 83.4 °F 63.9 °F 54% 30.08 in 10.0 mi West 10.4 mph - N/A   Clear
2:15 PM 81.9 °F 82.9 °F 62.6 °F 52% 30.07 in 10.0 mi NW 4.6 mph - N/A   Scattered Clouds
2:55 PM 83.5 °F 83.4 °F 59.2 °F 44% 30.06 in 10.0 mi West 5.8 mph - N/A   Overcast
3:15 PM 84.2 °F 83.5 °F 57.6 °F 40% 30.05 in 10.0 mi NNW 4.6 mph - N/A   Overcast
3:55 PM 84.9 °F 84.4 °F 58.5 °F 41% 30.04 in 10.0 mi SW 3.5 mph - N/A   Overcast
4:15 PM 84.4 °F 83.1 °F 54.5 °F 36% 30.03 in 10.0 mi Calm Calm - N/A   Scattered Clouds
4:35 PM 84.7 °F 83.3 °F 54.0 °F 35% 30.03 in 10.0 mi Calm Calm - N/A   Clear
4:55 PM 85.5 °F 84.1 °F 55.4 °F 36% 30.04 in 10.0 mi Calm Calm - N/A   Clear
5:15 PM 84.6 °F 83.0 °F 53.6 °F 34% 30.04 in 10.0 mi Calm Calm - N/A   Mostly Cloudy
5:35 PM 85.1 °F 83.5 °F 53.4 °F 34% 30.03 in 10.0 mi Calm Calm - N/A   Overcast
5:55 PM 84.7 °F 83.3 °F 54.5 °F 35% 30.03 in 10.0 mi North 3.5 mph - N/A   Overcast
6:15 PM 85.5 °F 84.0 °F 55.2 °F 35% 30.03 in 10.0 mi North 3.5 mph - N/A   Mostly Cloudy
6:35 PM 84.9 °F 83.3 °F 53.4 °F 34% 30.03 in 10.0 mi Calm Calm - N/A   Mostly Cloudy
6:55 PM 83.5 °F 82.5 °F 55.4 °F 38% 30.03 in 10.0 mi Calm Calm - N/A   Mostly Cloudy
7:15 PM 83.5 °F 82.9 °F 57.7 °F 41% 30.03 in 10.0 mi SSE 3.5 mph - N/A   Mostly Cloudy
7:35 PM 80.6 °F 80.8 °F 57.2 °F 45% 30.04 in 10.0 mi SSE 5.8 mph - N/A   Scattered Clouds
7:55 PM 78.1 °F - 61.2 °F 56% 30.04 in 10.0 mi SSE 5.8 mph - N/A   Clear
8:15 PM 77.2 °F - 62.1 °F 59% 30.05 in 10.0 mi SSE 6.9 mph - N/A   Clear
8:35 PM 76.3 °F - 62.1 °F 61% 30.05 in 10.0 mi South 6.9 mph - N/A   Clear
8:55 PM 75.0 °F - 62.8 °F 66% 30.06 in 10.0 mi South 6.9 mph - N/A Thunderstorm Clear
9:15 PM 74.8 °F - 63.0 °F 66% 30.07 in 10.0 mi South 5.8 mph - N/A   Clear
9:35 PM 75.0 °F - 64.6 °F 70% 30.08 in 10.0 mi SSW 8.1 mph - N/A   Clear
9:55 PM 73.9 °F - 64.9 °F 73% 30.09 in 10.0 mi ESE 3.5 mph - N/A   Clear
10:15 PM 72.5 °F - 65.3 °F 78% 30.09 in 10.0 mi ESE 4.6 mph - N/A   Clear
10:35 PM 72.5 °F - 65.5 °F 79% 30.09 in 10.0 mi Calm Calm - N/A   Clear
10:55 PM 72.9 °F - 65.1 °F 77% 30.09 in 10.0 mi South 3.5 mph - N/A   Scattered Clouds
11:15 PM 72.5 °F - 66.2 °F 81% 30.09 in 10.0 mi South 3.5 mph - N/A   Mostly Cloudy
11:35 PM 71.8 °F - 67.1 °F 85% 30.09 in 10.0 mi Calm Calm - N/A   Overcast
11:55 PM 71.1 °F - 68.2 °F 91% 30.10 in 10.0 mi Calm Calm - N/A   Overcast